Time;durP1;ratioP1;P1;durP2;ratioP2;P2;SDS_P1;SDS_P2;PMS_P1;PMS_P2;Temp;Humidity;BMP_temperature;BMP_pressure;BME280_temperature;BME280_humidity;BME280_pressure;Samples;Min_cycle;Max_cycle;Signal;HPM_P1;HPM_P2
2022/06/25 00:01:16;;;;;;;166.88;113.78;;;22.10;99.90;;;;;;4991626;28;20217;-53
2022/06/25 00:03:42;;;;;;;205.80;131.13;;;22.30;99.90;;;;;;4988125;28;20213;-54
2022/06/25 00:06:08;;;;;;;127.22;109.97;;;22.30;99.90;;;;;;4987726;28;20351;-53
2022/06/25 00:08:35;;;;;;;146.15;114.93;;;22.10;99.90;;;;;;4991895;28;20184;-53
2022/06/25 00:11:01;;;;;;;162.10;114.90;;;22.10;99.90;;;;;;4988439;28;20276;-54
2022/06/25 00:13:27;;;;;;;221.48;132.65;;;22.00;99.90;;;;;;4993714;28;20643;-53
2022/06/25 00:15:53;;;;;;;159.43;119.22;;;20.60;99.90;;;;;;4991695;28;20231;-53
2022/06/25 00:18:19;;;;;;;228.75;140.05;;;21.90;99.90;;;;;;4992196;28;20272;-53
2022/06/25 00:20:45;;;;;;;204.20;122.43;;;22.00;99.90;;;;;;4993569;28;20213;-54
2022/06/25 00:23:11;;;;;;;170.30;120.97;;;22.10;99.90;;;;;;4994444;28;20205;-53
2022/06/25 00:25:37;;;;;;;230.98;142.20;;;22.00;99.90;;;;;;4993469;28;20212;-54
2022/06/25 00:28:03;;;;;;;145.82;116.28;;;22.00;99.90;;;;;;4993406;28;20554;-53
2022/06/25 00:30:31;;;;;;;130.95;105.15;;;21.90;99.90;;;;;;4993908;28;20209;-53
2022/06/25 00:32:57;;;;;;;162.45;122.68;;;22.00;99.90;;;;;;4997314;28;20216;-53
2022/06/25 00:35:23;;;;;;;131.55;111.88;;;21.90;99.90;;;;;;5000516;28;20214;-54
2022/06/25 00:37:48;;;;;;;139.10;117.22;;;21.90;99.90;;;;;;5003813;28;20232;-53
2022/06/25 00:40:14;;;;;;;118.13;106.25;;;21.90;99.90;;;;;;5005256;28;20215;-53
2022/06/25 00:42:44;;;;;;;188.30;126.32;;;21.80;99.90;;;;;;5005542;28;20707;-53
2022/06/25 00:45:10;;;;;;;148.02;116.45;;;22.00;99.90;;;;;;5003430;28;20220;-53
2022/06/25 00:47:35;;;;;;;172.70;116.88;;;22.00;99.90;;;;;;5006978;28;20176;-54
2022/06/25 00:50:01;;;;;;;133.52;111.05;;;21.90;99.90;;;;;;5001965;28;20222;-54
2022/06/25 00:52:31;;;;;;;108.82;97.32;;;22.00;99.90;;;;;;5000161;28;20307;-53
2022/06/25 00:55:09;;;;;;;153.93;112.03;;;21.80;99.90;;;;;;4997252;28;20209;-53
2022/06/25 00:57:37;;;;;;;159.05;118.03;;;21.50;99.90;;;;;;4995395;28;20229;-54
2022/06/25 01:00:10;;;;;;;132.82;107.13;;;21.60;99.90;;;;;;5002341;28;20224;-54
2022/06/25 01:02:36;;;;;;;191.10;122.78;;;21.60;99.90;;;;;;4997146;28;20211;-53
2022/06/25 01:05:09;;;;;;;136.40;104.43;;;21.50;99.90;;;;;;4996137;28;20251;-53
2022/06/25 01:07:36;;;;;;;224.23;133.27;;;21.60;99.90;;;;;;4991854;28;20216;-53
2022/06/25 01:10:03;;;;;;;147.35;107.78;;;21.50;99.90;;;;;;4997471;28;20304;-53
2022/06/25 01:12:29;;;;;;;136.48;105.72;;;21.30;99.90;;;;;;4998261;28;20228;-53
2022/06/25 01:15:20;;;;;;;132.45;102.30;;;21.40;99.90;;;;;;4996501;28;20510;-54
2022/06/25 01:17:51;;;;;;;152.50;105.18;;;21.50;99.90;;;;;;4994214;28;21062;-53
2022/06/25 01:20:20;;;;;;;165.15;109.72;;;21.50;99.90;;;;;;4996027;28;20238;-54
2022/06/25 01:22:46;;;;;;;186.68;118.20;;;21.50;99.90;;;;;;4998753;28;20609;-54
2022/06/25 01:25:12;;;;;;;104.68;93.40;;;21.60;99.90;;;;;;4992465;28;20217;-53
2022/06/25 01:27:38;;;;;;;146.07;112.68;;;21.60;99.90;;;;;;5000553;28;20289;-53
2022/06/25 01:30:06;;;;;;;127.78;103.05;;;21.70;99.90;;;;;;5000424;28;20181;-53
2022/06/25 01:32:32;;;;;;;176.63;118.45;;;21.60;99.90;;;;;;4995687;28;20270;-53
2022/06/25 01:34:57;;;;;;;138.90;109.75;;;21.60;99.90;;;;;;4996618;28;20217;-53
2022/06/25 01:37:23;;;;;;;155.43;113.25;;;21.60;99.90;;;;;;4997648;28;20208;-53
2022/06/25 01:39:56;;;;;;;174.65;119.63;;;21.70;99.90;;;;;;4993004;28;20213;-53
2022/06/25 01:45:08;;;;;;;218.13;125.80;;;21.50;99.90;;;;;;4997075;28;20208;-53
2022/06/25 01:47:34;;;;;;;113.95;92.63;;;21.60;99.90;;;;;;5005845;28;20647;-53
2022/06/25 01:49:59;;;;;;;113.45;94.43;;;21.60;99.90;;;;;;5002512;28;20208;-53
2022/06/25 01:52:25;;;;;;;143.65;101.35;;;22.00;99.90;;;;;;4979873;28;20586;-53
2022/06/25 01:54:51;;;;;;;193.82;120.10;;;;;;;;;;4995883;28;20573;-53
2022/06/25 01:57:16;;;;;;;146.07;102.43;;;21.50;99.90;;;;;;4998166;28;20181;-53
2022/06/25 01:59:44;;;;;;;207.93;125.15;;;21.40;99.90;;;;;;4994747;28;20173;-53
2022/06/25 02:02:09;;;;;;;147.73;104.68;;;21.40;99.90;;;;;;4978662;28;20684;-53
2022/06/25 02:04:35;;;;;;;175.15;110.40;;;21.40;99.90;;;;;;4999456;28;20220;-53
2022/06/25 02:07:01;;;;;;;185.85;107.47;;;;;;;;;;4994688;28;20840;-54
2022/06/25 02:09:26;;;;;;;133.75;95.72;;;21.60;99.90;;;;;;5001619;28;20290;-53
2022/06/25 02:11:52;;;;;;;162.75;100.65;;;21.40;99.90;;;;;;4996470;28;20216;-53
2022/06/25 02:14:17;;;;;;;150.25;100.50;;;21.50;99.90;;;;;;4996911;28;20229;-53
2022/06/25 02:16:43;;;;;;;198.40;113.80;;;21.40;99.90;;;;;;4996575;28;20284;-53
2022/06/25 02:19:09;;;;;;;117.88;87.15;;;;;;;;;;4997938;28;20689;-53
2022/06/25 02:21:35;;;;;;;114.47;86.38;;;21.30;99.90;;;;;;4995400;28;20217;-53
2022/06/25 02:24:01;;;;;;;106.05;87.38;;;21.60;99.90;;;;;;4995081;28;20181;-53
2022/06/25 02:26:27;;;;;;;144.00;103.45;;;;;;;;;;5000905;28;20246;-53
2022/06/25 02:28:52;;;;;;;155.25;95.93;;;21.40;99.90;;;;;;5000812;28;20223;-53
2022/06/25 02:31:18;;;;;;;149.05;97.15;;;21.30;99.90;;;;;;4994893;28;20609;-53
2022/06/25 02:33:44;;;;;;;179.50;109.82;;;21.30;99.90;;;;;;4990250;28;20307;-53
2022/06/25 02:36:09;;;;;;;170.60;115.97;;;21.20;99.90;;;;;;4992374;28;20291;-53
2022/06/25 02:38:35;;;;;;;143.00;102.55;;;21.40;99.90;;;;;;4993416;28;20273;-53
2022/06/25 02:41:01;;;;;;;136.80;98.25;;;;;;;;;;4996182;28;20779;-54
2022/06/25 02:43:26;;;;;;;165.93;106.57;;;21.50;99.90;;;;;;4994414;28;20220;-53
2022/06/25 02:45:52;;;;;;;128.65;96.07;;;22.50;99.90;;;;;;4993970;28;20588;-53
2022/06/25 02:48:17;;;;;;;143.38;98.18;;;21.40;99.90;;;;;;4993520;28;20177;-53
2022/06/25 02:50:43;;;;;;;169.23;104.90;;;21.40;99.90;;;;;;4992674;28;20213;-53
2022/06/25 02:53:09;;;;;;;147.82;93.80;;;21.20;99.90;;;;;;4995291;28;20316;-53
2022/06/25 03:01:03;;;;;;;177.20;101.68;;;21.10;99.90;;;;;;4994998;28;20239;-53
2022/06/25 03:03:29;;;;;;;152.77;89.55;;;21.10;99.90;;;;;;4999861;28;20217;-53
2022/06/25 03:05:56;;;;;;;195.27;111.70;;;;;;;;;;4990435;28;20762;-53
2022/06/25 03:08:22;;;;;;;161.10;98.93;;;21.10;99.90;;;;;;4991816;28;20331;-54
2022/06/25 03:10:47;;;;;;;162.68;106.53;;;21.10;99.90;;;;;;4990968;28;20610;-54
2022/06/25 03:13:13;;;;;;;159.88;103.18;;;21.10;99.90;;;;;;4992363;28;20328;-54
2022/06/25 03:15:39;;;;;;;171.23;106.63;;;21.30;99.90;;;;;;4993931;28;20212;-53
2022/06/25 03:18:04;;;;;;;173.18;110.65;;;21.10;99.90;;;;;;4996406;28;20247;-54
2022/06/25 03:20:30;;;;;;;175.38;114.05;;;21.00;99.90;;;;;;4995701;28;20594;-54
2022/06/25 03:22:56;;;;;;;177.95;110.60;;;21.10;99.90;;;;;;4988977;28;20248;-53
2022/06/25 03:25:23;;;;;;;135.18;93.70;;;21.20;99.90;;;;;;4995899;28;20217;-54
2022/06/25 03:27:48;;;;;;;153.40;101.75;;;21.30;99.90;;;;;;4999331;28;20208;-54
2022/06/25 03:30:14;;;;;;;252.93;138.35;;;21.30;99.90;;;;;;4992042;28;20188;-54
2022/06/25 03:32:39;;;;;;;126.75;100.43;;;21.10;99.90;;;;;;4993679;28;20209;-53
2022/06/25 03:35:05;;;;;;;162.10;107.18;;;21.50;99.90;;;;;;4994120;28;20689;-54
2022/06/25 03:37:31;;;;;;;142.10;95.75;;;21.20;99.90;;;;;;4991957;28;20741;-53
2022/06/25 03:39:57;;;;;;;197.43;114.47;;;21.30;99.90;;;;;;4989079;28;20212;-54
2022/06/25 03:42:23;;;;;;;167.60;104.38;;;21.10;99.90;;;;;;4994858;28;20213;-54
2022/06/25 03:44:48;;;;;;;235.50;129.85;;;21.50;99.90;;;;;;4991077;28;20197;-54
2022/06/25 03:47:14;;;;;;;191.07;109.95;;;21.30;99.90;;;;;;4993070;28;20299;-54
2022/06/25 03:49:39;;;;;;;190.75;115.28;;;21.30;99.90;;;;;;4991941;28;20217;-53
2022/06/25 03:52:05;;;;;;;145.75;97.63;;;21.20;99.90;;;;;;4992378;28;20209;-54
2022/06/25 03:54:31;;;;;;;177.90;107.40;;;;;;;;;;4990846;28;20685;-53
2022/06/25 03:56:56;;;;;;;158.98;105.15;;;21.20;99.90;;;;;;4990125;28;20650;-54
2022/06/25 03:59:22;;;;;;;204.15;115.43;;;21.20;99.90;;;;;;4993521;28;20216;-54
2022/06/25 04:01:47;;;;;;;153.70;108.05;;;21.20;99.90;;;;;;4993740;28;20216;-54
2022/06/25 04:04:14;;;;;;;193.05;118.85;;;21.10;99.90;;;;;;4996757;28;20213;-54
2022/06/25 04:06:39;;;;;;;153.95;101.63;;;21.30;99.90;;;;;;4974002;28;20213;-54
2022/06/25 04:09:05;;;;;;;159.55;108.70;;;21.40;99.90;;;;;;4995260;28;20231;-54
2022/06/25 04:11:30;;;;;;;154.43;105.35;;;21.60;99.90;;;;;;4993759;28;20178;-54
2022/06/25 04:13:56;;;;;;;166.85;110.07;;;21.60;99.90;;;;;;4990649;28;20232;-54
2022/06/25 04:16:22;;;;;;;192.02;119.75;;;21.60;99.90;;;;;;4991229;28;20217;-54
2022/06/25 04:18:48;;;;;;;254.15;129.02;;;21.50;99.90;;;;;;4988280;28;20216;-53
2022/06/25 04:21:14;;;;;;;197.68;119.60;;;21.60;99.90;;;;;;4995044;28;20272;-54
2022/06/25 04:23:39;;;;;;;105.47;91.82;;;21.70;99.90;;;;;;4991595;28;20277;-54
2022/06/25 04:26:05;;;;;;;148.73;101.47;;;21.60;99.90;;;;;;4992675;28;20227;-54
2022/06/25 04:31:15;;;;;;;169.95;110.95;;;21.50;99.90;;;;;;4998296;28;20645;-54
2022/06/25 04:33:40;;;;;;;134.40;97.28;;;21.50;99.90;;;;;;5008569;28;20846;-54
2022/06/25 04:36:06;;;;;;;112.88;95.38;;;21.30;99.90;;;;;;4985610;28;20223;-54
2022/06/25 04:38:32;;;;;;;124.80;97.95;;;21.30;99.90;;;;;;5002657;28;20645;-54
2022/06/25 04:40:57;;;;;;;109.80;94.38;;;21.40;99.90;;;;;;4998711;28;20220;-54
2022/06/25 04:43:23;;;;;;;159.20;102.15;;;21.50;99.90;;;;;;5004065;28;20220;-54
2022/06/25 04:45:49;;;;;;;99.03;88.57;;;21.60;99.90;;;;;;5005216;28;20793;-54
2022/06/25 04:48:15;;;;;;;109.35;90.18;;;21.60;99.90;;;;;;5004046;28;20272;-54
2022/06/25 04:50:43;;;;;;;175.20;110.45;;;21.50;99.90;;;;;;4998944;28;20177;-54
2022/06/25 04:53:08;;;;;;;132.02;100.72;;;20.10;99.90;;;;;;5003075;28;20705;-54
2022/06/25 04:55:34;;;;;;;221.95;126.45;;;21.40;99.90;;;;;;5004669;28;20751;-54
2022/06/25 04:57:59;;;;;;;119.22;97.65;;;21.30;99.90;;;;;;5006271;28;20260;-54
2022/06/25 05:00:25;;;;;;;146.90;109.53;;;21.30;99.90;;;;;;4999681;28;20217;-54
2022/06/25 05:02:50;;;;;;;116.72;100.75;;;21.40;99.90;;;;;;5005071;28;20679;-54
2022/06/25 05:05:16;;;;;;;133.68;95.53;;;21.40;99.90;;;;;;5000633;28;20228;-54
2022/06/25 05:07:41;;;;;;;135.88;104.47;;;21.40;99.90;;;;;;5001977;28;20609;-54
2022/06/25 05:10:07;;;;;;;140.48;104.80;;;21.40;99.90;;;;;;5003459;28;20216;-54
2022/06/25 05:15:17;;;;;;;183.40;114.35;;;21.50;99.90;;;;;;5005781;28;20218;-54
2022/06/25 05:17:43;;;;;;;134.90;100.70;;;21.50;99.90;;;;;;5007912;28;20181;-54
2022/06/25 05:20:09;;;;;;;98.10;85.18;;;21.50;99.90;;;;;;5006088;28;20613;-54
2022/06/25 05:22:34;;;;;;;142.80;110.18;;;21.60;99.90;;;;;;5006283;28;20267;-54
2022/06/25 05:25:00;;;;;;;120.78;104.10;;;21.50;99.90;;;;;;5005764;28;20222;-54
2022/06/25 05:27:27;;;;;;;150.30;115.88;;;21.40;99.90;;;;;;5011051;28;20300;-54
2022/06/25 05:29:53;;;;;;;151.73;111.63;;;21.60;99.90;;;;;;5008631;28;20693;-54
2022/06/25 05:32:19;;;;;;;195.35;127.40;;;21.60;99.90;;;;;;4997097;28;20217;-54
2022/06/25 05:34:44;;;;;;;189.57;126.75;;;21.70;99.90;;;;;;4992198;28;20223;-54
2022/06/25 05:37:11;;;;;;;163.85;120.13;;;22.00;99.90;;;;;;4996676;28;20608;-54
2022/06/25 05:39:36;;;;;;;121.70;108.57;;;21.80;99.90;;;;;;5001620;28;20217;-54
2022/06/25 05:42:03;;;;;;;170.60;130.98;;;21.80;99.90;;;;;;5003444;28;20243;-54
2022/06/25 05:44:29;;;;;;;227.32;160.23;;;21.90;99.90;;;;;;4995226;28;20193;-54
2022/06/25 05:46:54;;;;;;;171.98;132.70;;;22.00;99.90;;;;;;5002675;28;20236;-54
2022/06/25 05:49:20;;;;;;;164.13;132.40;;;22.10;99.90;;;;;;5002640;28;20231;-54
2022/06/25 05:51:45;;;;;;;125.90;113.68;;;22.00;99.90;;;;;;5004083;28;20213;-56
2022/06/25 05:54:11;;;;;;;134.75;120.97;;;22.00;99.90;;;;;;5011250;28;20545;-56
2022/06/25 05:56:36;;;;;;;154.68;131.65;;;22.10;99.90;;;;;;5013554;28;20201;-55
2022/06/25 05:59:02;;;;;;;156.07;138.77;;;22.20;99.90;;;;;;5027590;28;20204;-56
2022/06/25 06:01:27;;;;;;;149.70;133.43;;;22.20;99.90;;;;;;5010505;28;20222;-56
2022/06/25 06:03:53;;;;;;;117.85;105.53;;;22.30;99.90;;;;;;5015717;28;20343;-56
2022/06/25 06:06:18;;;;;;;134.82;120.82;;;22.30;99.90;;;;;;5012192;28;20224;-56
2022/06/25 06:08:44;;;;;;;166.43;150.02;;;22.50;99.90;;;;;;5012939;28;20260;-55
2022/06/25 06:11:09;;;;;;;217.70;187.85;;;22.40;99.90;;;;;;5012427;28;20651;-56
2022/06/25 06:13:35;;;;;;;217.48;188.50;;;22.50;99.90;;;;;;5012327;28;20217;-55
2022/06/25 06:16:00;;;;;;;214.23;181.00;;;22.60;99.90;;;;;;4994433;28;20221;-56
2022/06/25 06:18:26;;;;;;;202.32;179.95;;;22.60;99.90;;;;;;5012517;28;20299;-56
2022/06/25 06:20:51;;;;;;;212.35;189.10;;;22.70;99.90;;;;;;5012440;28;20173;-56
2022/06/25 06:23:17;;;;;;;235.43;198.20;;;22.80;99.90;;;;;;5012141;28;20303;-56
2022/06/25 06:25:42;;;;;;;222.73;198.25;;;22.90;99.90;;;;;;5012136;28;20276;-56
2022/06/25 06:28:08;;;;;;;233.18;202.82;;;22.90;99.90;;;;;;5011352;28;20216;-56
2022/06/25 06:30:33;;;;;;;230.20;197.23;;;22.90;99.90;;;;;;5012066;28;20232;-56
2022/06/25 06:32:59;;;;;;;225.70;200.88;;;23.00;99.90;;;;;;5011559;28;20386;-56
2022/06/25 06:35:24;;;;;;;241.55;200.45;;;22.90;99.90;;;;;;5011149;28;20224;-56
2022/06/25 06:37:50;;;;;;;150.13;132.43;;;22.90;99.90;;;;;;4993016;28;20221;-55
2022/06/25 06:40:15;;;;;;;182.13;163.65;;;23.20;99.90;;;;;;5011758;28;20220;-55
2022/06/25 06:42:41;;;;;;;190.95;170.95;;;23.20;93.70;;;;;;5011553;28;20213;-56
2022/06/25 06:45:07;;;;;;;255.70;201.38;;;23.20;99.90;;;;;;5010500;28;20188;-56
2022/06/25 06:47:33;;;;;;;233.52;207.95;;;23.20;90.20;;;;;;5012227;28;20181;-55
2022/06/25 06:49:59;;;;;;;261.40;216.65;;;23.30;86.30;;;;;;5011975;28;20216;-55
2022/06/25 06:52:26;;;;;;;154.48;139.18;;;23.30;82.00;;;;;;5010644;28;20224;-55
2022/06/25 06:54:52;;;;;;;185.40;161.50;;;;;;;;;;5011619;28;20205;-55
2022/06/25 06:57:17;;;;;;;207.23;185.02;;;23.90;13.90;;;;;;5010252;28;20260;-55
2022/06/25 06:59:43;;;;;;;241.77;210.23;;;24.10;1.00;;;;;;5011701;28;20637;-56
2022/06/25 07:02:08;;;;;;;244.40;214.63;;;24.00;1.00;;;;;;5008404;28;20213;-55
2022/06/25 07:04:34;;;;;;;239.75;209.30;;;24.00;1.00;;;;;;5004764;28;20209;-52
2022/06/25 07:07:00;;;;;;;321.98;234.25;;;24.00;49.90;;;;;;4991434;28;20300;-53
2022/06/25 07:09:25;;;;;;;300.67;232.48;;;24.30;49.60;;;;;;4986407;28;20212;-53
2022/06/25 07:11:51;;;;;;;275.85;198.18;;;24.30;5.60;;;;;;4991940;28;20211;-53
2022/06/25 07:14:16;;;;;;;336.77;240.25;;;24.50;1.00;;;;;;4989877;28;20224;-54
2022/06/25 07:16:42;;;;;;;259.58;210.80;;;24.40;1.00;;;;;;4994255;28;20209;-54
2022/06/25 07:19:07;;;;;;;253.80;198.48;;;24.60;1.00;;;;;;4999162;28;20217;-54
2022/06/25 07:21:33;;;;;;;263.17;215.02;;;24.70;1.00;;;;;;4995333;28;20288;-54
2022/06/25 07:23:58;;;;;;;301.88;230.05;;;24.70;1.00;;;;;;4996670;28;20586;-53
2022/06/25 07:26:24;;;;;;;292.67;209.65;;;24.60;1.00;;;;;;5002543;28;20213;-53
2022/06/25 07:28:53;;;;;;;323.90;230.25;;;24.60;1.00;;;;;;5000092;28;20312;-53
2022/06/25 07:31:20;;;;;;;291.52;223.55;;;24.40;1.00;;;;;;4994222;28;20283;-53
2022/06/25 07:33:46;;;;;;;209.95;178.73;;;24.40;1.00;;;;;;4977141;28;20718;-54
2022/06/25 07:36:11;;;;;;;298.85;227.57;;;24.50;1.00;;;;;;4995153;28;20208;-54
2022/06/25 07:38:37;;;;;;;310.63;243.40;;;24.40;1.00;;;;;;4986612;28;20537;-54
2022/06/25 07:41:03;;;;;;;298.42;236.70;;;24.60;99.90;;;;;;4993860;28;20355;-54
2022/06/25 07:43:28;;;;;;;284.85;234.98;;;24.60;1.00;;;;;;4993129;28;20628;-54
2022/06/25 07:45:55;;;;;;;304.38;240.13;;;24.90;1.00;;;;;;4998866;28;20224;-54
2022/06/25 07:48:21;;;;;;;270.15;222.82;;;24.90;1.00;;;;;;5003264;28;20223;-55
2022/06/25 07:53:31;;;;;;;313.05;247.65;;;25.30;99.90;;;;;;4998882;28;20271;-55
2022/06/25 07:55:57;;;;;;;267.10;236.75;;;25.60;99.90;;;;;;5004860;28;20212;-55
2022/06/25 07:58:26;;;;;;;290.52;240.93;;;25.50;1.00;;;;;;5013932;28;20295;-55
2022/06/25 08:00:52;;;;;;;306.08;252.38;;;25.90;35.00;;;;;;5005475;28;20299;-53
2022/06/25 08:03:18;;;;;;;297.88;247.52;;;26.00;1.00;;;;;;5009812;28;20304;-54
2022/06/25 08:05:44;;;;;;;343.05;272.30;;;26.10;99.90;;;;;;4998388;28;20663;-55
2022/06/25 08:08:10;;;;;;;344.70;276.65;;;26.10;1.00;;;;;;5000290;28;20299;-54
2022/06/25 08:10:35;;;;;;;321.10;262.63;;;26.10;68.70;;;;;;5000204;28;20224;-53
2022/06/25 08:13:02;;;;;;;280.33;249.75;;;26.10;99.90;;;;;;5008049;28;20263;-54
2022/06/25 08:15:27;;;;;;;318.55;268.13;;;25.90;99.90;;;;;;5007512;28;20216;-54
2022/06/25 08:17:53;;;;;;;287.70;252.10;;;25.90;99.90;;;;;;5007271;28;20629;-55
2022/06/25 08:20:18;;;;;;;270.48;239.13;;;26.00;99.90;;;;;;5000549;28;20489;-54
2022/06/25 08:22:44;;;;;;;296.55;249.85;;;25.90;99.90;;;;;;5005854;28;20201;-54
2022/06/25 08:25:09;;;;;;;325.38;258.23;;;26.30;99.90;;;;;;5005916;28;20228;-54
2022/06/25 08:27:50;;;;;;;231.60;206.90;;;26.20;93.40;;;;;;4995132;28;20263;-54
2022/06/25 08:30:18;;;;;;;300.92;261.02;;;26.60;30.90;;;;;;4989976;28;20185;-55
2022/06/25 08:32:44;;;;;;;308.35;268.20;;;26.50;99.90;;;;;;5005054;28;20213;-54
2022/06/25 08:35:11;;;;;;;329.65;267.15;;;26.30;1.00;;;;;;5005592;28;20220;-54
2022/06/25 08:37:38;;;;;;;310.48;256.67;;;26.40;1.00;;;;;;5006086;28;20212;-54
2022/06/25 08:40:07;;;;;;;298.17;243.25;;;26.60;71.60;;;;;;5006580;28;20209;-54
2022/06/25 08:42:33;;;;;;;307.50;256.48;;;27.00;1.00;;;;;;5008577;28;20259;-54
2022/06/25 08:44:59;;;;;;;318.30;271.50;;;27.10;1.00;;;;;;5008433;28;20200;-55
2022/06/25 08:47:25;;;;;;;330.30;276.02;;;27.10;1.10;;;;;;5007104;28;20185;-54
2022/06/25 08:49:51;;;;;;;281.60;250.52;;;27.10;99.90;;;;;;5003623;28;20274;-54
2022/06/25 08:52:18;;;;;;;301.98;266.08;;;27.40;1.00;;;;;;5009488;28;20246;-54
2022/06/25 08:54:46;;;;;;;293.73;250.50;;;27.20;28.90;;;;;;5011382;28;20577;-54
2022/06/25 08:57:12;;;;;;;236.32;211.13;;;26.00;1.00;;;;;;5011393;28;20403;-54
2022/06/25 08:59:39;;;;;;;320.70;262.30;;;27.40;1.00;;;;;;5013727;28;20185;-54
2022/06/25 09:02:05;;;;;;;310.05;264.15;;;27.50;1.00;;;;;;5014391;28;20208;-55
2022/06/25 09:04:31;;;;;;;291.23;257.85;;;27.50;1.00;;;;;;5014503;28;20212;-54
2022/06/25 09:07:14;;;;;;;251.50;224.15;;;27.50;99.90;;;;;;5009806;28;20295;-55
2022/06/25 09:09:44;;;;;;;303.05;252.15;;;27.90;99.90;;;;;;5012162;28;20220;-54
2022/06/25 09:12:14;;;;;;;299.92;250.27;;;28.00;99.90;;;;;;5009626;28;20177;-55
2022/06/25 09:14:39;;;;;;;259.90;231.93;;;27.90;31.90;;;;;;5014466;28;20169;-54
2022/06/25 09:17:09;;;;;;;326.80;271.85;;;28.10;1.00;;;;;;4996792;28;20351;-54
2022/06/25 09:19:43;;;;;;;252.73;226.93;;;27.90;1.00;;;;;;5008716;28;20239;-55
2022/06/25 09:22:20;;;;;;;296.98;264.83;;;27.90;1.00;;;;;;5003484;28;20977;-54
2022/06/25 09:24:57;;;;;;;275.88;247.80;;;27.90;53.40;;;;;;5011167;28;20246;-54
2022/06/25 09:27:28;;;;;;;245.90;220.77;;;27.90;76.90;;;;;;5013605;28;20344;-55
2022/06/25 09:29:54;;;;;;;273.63;240.75;;;27.80;99.90;;;;;;5009544;28;20251;-54
2022/06/25 09:32:19;;;;;;;306.13;258.73;;;27.90;87.80;;;;;;5002350;28;20372;-55
2022/06/25 09:34:45;;;;;;;270.65;242.70;;;28.00;93.40;;;;;;5012954;28;20209;-55
2022/06/25 09:37:16;;;;;;;301.33;268.83;;;28.00;93.00;;;;;;5005518;28;20216;-54
2022/06/25 09:39:43;;;;;;;298.55;265.98;;;28.30;99.90;;;;;;5003741;28;20309;-54
2022/06/25 09:42:23;;;;;;;268.33;240.65;;;28.30;1.00;;;;;;5006090;28;20192;-54
2022/06/25 09:44:57;;;;;;;255.85;229.77;;;28.60;1.00;;;;;;5012523;28;20231;-56
2022/06/25 09:47:23;;;;;;;303.48;272.40;;;28.70;1.00;;;;;;5012183;28;20266;-56
2022/06/25 09:49:49;;;;;;;321.63;289.48;;;28.90;1.00;;;;;;5013010;28;20216;-55
2022/06/25 09:52:14;;;;;;;322.55;290.27;;;28.90;1.00;;;;;;5012544;28;20217;-56
2022/06/25 09:54:40;;;;;;;322.90;291.00;;;29.10;1.00;;;;;;5012767;28;20213;-56
2022/06/25 09:57:05;;;;;;;335.38;300.08;;;29.10;1.00;;;;;;5008702;28;20208;-55
2022/06/25 09:59:32;;;;;;;339.35;304.33;;;29.00;1.00;;;;;;5008600;28;20217;-55
2022/06/25 10:02:03;;;;;;;322.40;287.17;;;29.20;1.00;;;;;;5006471;28;20693;-56
2022/06/25 10:04:30;;;;;;;311.77;276.40;;;29.30;1.00;;;;;;5004486;28;20715;-55
2022/06/25 10:06:57;;;;;;;319.35;288.02;;;29.40;1.00;;;;;;5006291;28;20213;-55
2022/06/25 10:09:25;;;;;;;332.15;297.20;;;29.40;1.00;;;;;;5007725;28;20212;-55
2022/06/25 10:11:52;;;;;;;301.38;271.30;;;29.30;1.00;;;;;;5016124;28;20185;-56
2022/06/25 10:14:17;;;;;;;287.95;257.92;;;29.40;1.00;;;;;;5010124;28;20232;-55
2022/06/25 10:16:44;;;;;;;303.23;272.00;;;29.50;99.90;;;;;;5014523;28;20296;-56
2022/06/25 10:19:15;;;;;;;306.90;277.48;;;29.30;99.90;;;;;;5008555;28;20212;-55
2022/06/25 10:21:41;;;;;;;311.90;281.20;;;29.50;99.90;;;;;;5012284;28;20568;-55
2022/06/25 10:24:08;;;;;;;280.48;251.35;;;29.50;99.90;;;;;;5005150;28;20189;-56
2022/06/25 10:26:35;;;;;;;278.08;250.60;;;29.40;99.90;;;;;;5016688;28;20271;-56
2022/06/25 10:29:02;;;;;;;290.77;261.02;;;29.50;99.90;;;;;;5011983;28;20367;-55
2022/06/25 10:31:28;;;;;;;277.15;248.90;;;29.80;99.90;;;;;;5006497;28;20223;-55
2022/06/25 10:34:02;;;;;;;279.27;250.90;;;29.20;99.90;;;;;;5012819;28;20221;-56
2022/06/25 10:36:51;;;;;;;276.00;248.10;;;29.10;99.90;;;;;;5007866;28;20319;-56
2022/06/25 10:39:23;;;;;;;314.67;284.20;;;29.20;99.90;;;;;;5005360;28;20185;-56
2022/06/25 10:45:04;;;;;;;269.40;243.65;;;29.20;99.90;;;;;;5009789;28;20290;-55
2022/06/25 10:47:37;;;;;;;291.35;259.48;;;29.30;99.90;;;;;;5006562;28;20740;-55
2022/06/25 10:50:21;;;;;;;314.85;280.10;;;29.20;99.90;;;;;;5006515;28;20292;-55
2022/06/25 10:53:02;;;;;;;293.67;263.25;;;29.20;99.90;;;;;;5008017;28;20223;-55
2022/06/25 10:55:39;;;;;;;301.65;268.92;;;29.80;99.90;;;;;;5012425;28;20697;-55
2022/06/25 10:58:14;;;;;;;336.27;278.17;;;29.70;99.90;;;;;;5009417;28;20342;-55
2022/06/25 11:01:01;;;;;;;358.40;288.75;;;30.10;99.90;;;;;;5003617;28;20235;-56
2022/06/25 11:03:30;;;;;;;353.23;305.73;;;30.20;99.90;;;;;;5012903;28;20208;-56
2022/06/25 11:05:57;;;;;;;349.80;301.27;;;30.30;99.90;;;;;;5010011;28;20288;-56
2022/06/25 11:08:35;;;;;;;363.15;316.52;;;30.40;99.90;;;;;;5008231;28;20647;-55
2022/06/25 11:11:00;;;;;;;358.52;308.15;;;30.60;99.90;;;;;;5009143;28;20299;-55
2022/06/25 11:13:27;;;;;;;350.10;302.02;;;30.70;99.90;;;;;;5015736;28;20629;-56
2022/06/25 11:15:53;;;;;;;342.70;305.92;;;30.70;99.90;;;;;;5011088;28;20264;-56
2022/06/25 11:18:18;;;;;;;374.85;329.13;;;30.70;99.90;;;;;;5003028;28;20228;-56
2022/06/25 11:20:46;;;;;;;335.85;303.30;;;30.70;99.90;;;;;;5015500;28;20173;-56
2022/06/25 11:23:13;;;;;;;363.75;326.92;;;30.80;99.90;;;;;;5006303;28;20308;-55
2022/06/25 11:28:49;;;;;;;331.80;297.85;;;31.00;99.90;;;;;;5012262;28;20243;-56
2022/06/25 11:31:15;;;;;;;328.70;294.30;;;31.10;99.90;;;;;;5007593;28;20266;-56
2022/06/25 11:33:43;;;;;;;348.92;310.63;;;31.40;99.90;;;;;;5010358;28;20697;-55
2022/06/25 11:36:10;;;;;;;327.27;293.98;;;31.90;99.90;;;;;;5007360;28;20436;-56
2022/06/25 11:38:36;;;;;;;356.85;320.83;;;32.00;99.90;;;;;;5009629;28;20243;-56
2022/06/25 11:41:02;;;;;;;357.67;322.23;;;32.00;95.80;;;;;;5013371;28;20247;-56
2022/06/25 11:43:29;;;;;;;340.10;304.15;;;32.10;97.70;;;;;;5012217;28;20220;-56
2022/06/25 11:45:59;;;;;;;349.08;314.48;;;32.20;70.30;;;;;;5005227;28;20225;-56
2022/06/25 11:48:34;;;;;;;327.40;294.35;;;32.20;80.20;;;;;;5011893;28;20209;-56
2022/06/25 11:51:01;;;;;;;341.10;306.98;;;32.10;55.20;;;;;;5009074;28;20208;-56
2022/06/25 11:53:27;;;;;;;373.85;334.90;;;32.20;66.30;;;;;;5008601;28;20227;-56
2022/06/25 11:56:00;;;;;;;339.13;304.00;;;31.70;45.20;;;;;;4996950;28;20220;-56
2022/06/25 11:58:26;;;;;;;333.25;299.35;;;31.70;50.90;;;;;;5002836;28;20592;-55
2022/06/25 12:00:56;;;;;;;335.58;300.33;;;31.60;45.50;;;;;;5003105;28;20305;-56
2022/06/25 12:03:29;;;;;;;339.98;306.63;;;31.60;60.70;;;;;;5005195;28;20235;-56
2022/06/25 12:05:57;;;;;;;359.80;322.10;;;31.80;40.40;;;;;;5002261;28;20220;-55
2022/06/25 12:08:23;;;;;;;353.95;317.27;;;31.90;50.80;;;;;;5001024;28;20231;-56
2022/06/25 12:10:51;;;;;;;341.83;306.65;;;31.90;37.30;;;;;;5007094;28;20212;-55
2022/06/25 12:13:17;;;;;;;367.15;327.90;;;32.00;39.20;;;;;;5000094;28;20221;-56
2022/06/25 12:15:43;;;;;;;377.75;338.50;;;32.20;8.60;;;;;;5003444;28;20632;-55
2022/06/25 12:18:09;;;;;;;363.27;324.95;;;32.10;21.70;;;;;;5004374;28;20185;-55
2022/06/25 12:20:34;;;;;;;386.58;345.50;;;32.10;16.60;;;;;;5006931;28;20576;-56
2022/06/25 12:23:02;;;;;;;383.90;347.00;;;32.40;6.00;;;;;;5004757;28;20311;-56
2022/06/25 12:25:30;;;;;;;391.13;353.85;;;32.90;1.00;;;;;;5002935;28;20665;-55
2022/06/25 12:27:56;;;;;;;392.40;354.33;;;32.90;1.00;;;;;;5006407;28;20248;-56
2022/06/25 12:30:30;;;;;;;364.67;327.83;;;33.10;1.00;;;;;;5003627;28;20630;-55
2022/06/25 12:33:13;;;;;;;387.23;345.10;;;33.20;1.00;;;;;;4999407;28;20216;-56
2022/06/25 12:35:41;;;;;;;386.23;344.65;;;33.30;1.00;;;;;;5001202;28;20299;-56